Time;durP1;ratioP1;P1;durP2;ratioP2;P2;SDS_P1;SDS_P2;PMS_P1;PMS_P2;Temp;Humidity;BMP_temperature;BMP_pressure;BME280_temperature;BME280_humidity;BME280_pressure;Samples;Min_cycle;Max_cycle;Signal;HPM_P1;HPM_P2
2021/12/21 00:00:22;;;;;;;;;;;7.30;99.90;;;;;;5053259;28;20347;-74
2021/12/21 00:02:49;;;;;;;;;;;7.30;99.90;;;;;;5053907;28;19905;-74
2021/12/21 00:05:19;;;;;;;;;;;7.30;99.90;;;;;;5054575;28;19947;-75
2021/12/21 00:07:46;;;;;;;;;;;7.30;99.90;;;;;;5053760;28;20059;-75
2021/12/21 00:10:12;;;;;;;;;;;7.30;99.90;;;;;;5076589;28;20283;-76
2021/12/21 00:12:47;;;;;;;;;;;7.30;99.90;;;;;;5056842;28;19911;-75
2021/12/21 00:16:01;;;;;;;;;;;7.30;99.90;;;;;;5053054;28;20319;-74
2021/12/21 00:23:44;;;;;;;;;;;7.20;99.90;;;;;;5053752;28;19911;-74
2021/12/21 00:25:47;;;;;;;;;;;7.20;99.90;;;;;;5052672;28;19962;-76
2021/12/21 00:28:12;;;;;;;;;;;7.20;99.90;;;;;;5053983;28;20359;-73
2021/12/21 00:30:38;;;;;;;;;;;7.20;99.90;;;;;;5053452;28;20259;-76
2021/12/21 00:33:03;;;;;;;;;;;7.20;99.90;;;;;;5053608;28;20010;-74
2021/12/21 00:35:29;;;;;;;;;;;7.20;99.90;;;;;;5053544;28;19983;-74
2021/12/21 00:37:56;;;;;;;;;;;7.20;99.90;;;;;;5053114;28;19901;-74
2021/12/21 00:40:22;;;;;;;;;;;7.20;99.90;;;;;;5052497;28;20386;-74
2021/12/21 00:42:47;;;;;;;;;;;7.20;99.90;;;;;;5053209;28;19905;-75
2021/12/21 00:45:13;;;;;;;;;;;7.20;99.90;;;;;;5053729;28;19905;-74
2021/12/21 00:47:42;;;;;;;;;;;7.20;99.90;;;;;;5052923;28;19920;-75
2021/12/21 00:50:16;;;;;;;;;;;7.20;99.90;;;;;;5052494;28;19965;-74
2021/12/21 00:52:41;;;;;;;;;;;7.20;99.90;;;;;;5051808;28;20417;-74
2021/12/21 00:55:07;;;;;;;;;;;7.20;99.90;;;;;;5053552;28;19944;-73
2021/12/21 00:57:33;;;;;;;;;;;7.20;99.90;;;;;;5066714;28;19927;-74
2021/12/21 00:59:58;;;;;;;;;;;7.20;99.90;;;;;;5071850;28;19935;-73
2021/12/21 01:02:24;;;;;;;;;;;7.20;99.90;;;;;;5056736;28;19905;-74
2021/12/21 01:04:51;;;;;;;;;;;7.20;99.90;;;;;;5053102;28;19919;-73
2021/12/21 01:07:24;;;;;;;;;;;7.20;99.90;;;;;;5053534;28;19915;-74
2021/12/21 01:17:59;;;;;;;;;;;7.10;99.90;;;;;;5053280;28;20014;-74
2021/12/21 01:20:31;;;;;;;;;;;7.10;99.90;;;;;;5053253;28;19905;-74
2021/12/21 01:26:06;;;;;;;;;;;7.20;99.90;;;;;;5052842;28;19927;-75
2021/12/21 01:28:55;;;;;;;;;;;7.10;99.90;;;;;;5052567;28;20350;-74
2021/12/21 01:31:36;;;;;;;;;;;7.10;99.90;;;;;;5053392;28;19916;-74
2021/12/21 01:34:56;;;;;;;;;;;7.10;99.90;;;;;;5052683;28;19905;-74
2021/12/21 01:37:08;;;;;;;;;;;7.10;99.90;;;;;;5051576;28;19927;-74
2021/12/21 01:39:55;;;;;;;;;;;7.10;99.90;;;;;;5053012;28;19904;-74
2021/12/21 01:50:53;;;;;;;;;;;7.10;99.90;;;;;;5051490;28;19990;-74
2021/12/21 01:53:19;;;;;;;;;;;7.10;99.90;;;;;;5052822;28;19908;-73
2021/12/21 01:55:45;;;;;;;;;;;7.10;99.90;;;;;;5052187;28;19904;-73
2021/12/21 01:58:10;;;;;;;;;;;7.10;99.90;;;;;;5053187;28;20013;-73
2021/12/21 02:00:37;;;;;;;;;;;7.10;99.90;;;;;;5052795;28;20355;-73
2021/12/21 02:03:02;;;;;;;;;;;7.10;99.90;;;;;;5052425;28;19967;-75
2021/12/21 02:05:28;;;;;;;;;;;7.10;99.90;;;;;;5053165;28;19935;-73
2021/12/21 02:07:54;;;;;;;;;;;7.10;99.90;;;;;;5051966;28;19912;-73
2021/12/21 02:10:19;;;;;;;;;;;7.10;99.90;;;;;;5052553;28;19944;-73
2021/12/21 02:12:45;;;;;;;;;;;7.10;99.90;;;;;;5052249;28;19947;-74
2021/12/21 02:15:11;;;;;;;;;;;7.10;99.90;;;;;;5052519;28;19954;-73
2021/12/21 02:20:40;;;;;;;;;;;7.10;99.90;;;;;;5051940;28;19904;-74
2021/12/21 02:28:10;;;;;;;;;;;7.10;99.90;;;;;;5055886;28;19912;-74
2021/12/21 02:30:38;;;;;;;;;;;7.00;99.90;;;;;;5056607;28;19908;-73
2021/12/21 02:33:04;;;;;;;;;;;7.00;99.90;;;;;;5055851;28;19907;-74
2021/12/21 02:35:30;;;;;;;;;;;7.10;99.90;;;;;;5056487;28;20011;-73
2021/12/21 02:37:55;;;;;;;;;;;7.10;99.90;;;;;;5055852;28;19909;-74
2021/12/21 02:40:21;;;;;;;;;;;7.10;99.90;;;;;;5056452;28;20248;-73
2021/12/21 02:42:47;;;;;;;;;;;7.10;99.90;;;;;;5055755;28;20271;-73
2021/12/21 02:45:12;;;;;;;;;;;7.10;99.90;;;;;;5056489;28;20013;-74
2021/12/21 02:47:38;;;;;;;;;;;7.10;99.90;;;;;;5056046;28;19919;-73
2021/12/21 02:50:05;;;;;;;;;;;7.10;99.90;;;;;;5055261;28;19979;-74
2021/12/21 02:52:30;;;;;;;;;;;7.10;99.90;;;;;;5056776;28;19947;-73
2021/12/21 02:54:56;;;;;;;;;;;7.00;99.90;;;;;;5070585;28;19931;-74
2021/12/21 02:57:21;;;;;;;;;;;7.00;99.90;;;;;;5059473;28;19911;-73
2021/12/21 02:59:47;;;;;;;;;;;7.10;99.90;;;;;;5055297;28;19950;-73
2021/12/21 03:02:13;;;;;;;;;;;7.00;99.90;;;;;;5055725;28;20004;-74
2021/12/21 03:04:41;;;;;;;;;;;7.00;99.90;;;;;;5055736;28;19919;-73
2021/12/21 03:10:00;;;;;;;;;;;7.00;99.90;;;;;;5054952;28;19912;-74
2021/12/21 03:14:52;;;;;;;;;;;7.00;99.90;;;;;;5054074;28;20465;-73
2021/12/21 03:17:18;;;;;;;;;;;7.00;99.90;;;;;;5055651;28;19943;-73
2021/12/21 03:19:44;;;;;;;;;;;6.90;99.90;;;;;;5055663;28;19904;-73
2021/12/21 03:22:10;;;;;;;;;;;7.00;99.90;;;;;;5070188;28;20021;-73
2021/12/21 03:24:35;;;;;;;;;;;7.00;99.90;;;;;;5055259;28;19904;-73
2021/12/21 03:27:02;;;;;;;;;;;6.90;99.90;;;;;;5054967;28;19939;-73
2021/12/21 03:29:28;;;;;;;;;;;7.00;99.90;;;;;;5055496;28;20003;-74
2021/12/21 03:31:54;;;;;;;;;;;7.00;99.90;;;;;;5053512;28;19959;-74
2021/12/21 03:34:19;;;;;;;;;;;7.00;99.90;;;;;;5053939;28;19904;-74
2021/12/21 03:36:45;;;;;;;;;;;7.00;99.90;;;;;;5055190;28;20352;-73
2021/12/21 03:39:17;;;;;;;;;;;7.00;99.90;;;;;;5054570;28;20413;-73
2021/12/21 03:41:46;;;;;;;;;;;7.00;99.90;;;;;;5055238;28;19912;-74
2021/12/21 03:44:12;;;;;;;;;;;7.00;99.90;;;;;;5054609;28;19904;-74
2021/12/21 03:46:48;;;;;;;;;;;7.00;99.90;;;;;;5055047;28;20364;-74
2021/12/21 03:52:17;;;;;;;;;;;7.00;99.90;;;;;;5054402;28;19935;-74
2021/12/21 03:54:47;;;;;;;;;;;7.00;99.90;;;;;;5054860;28;19936;-74
2021/12/21 03:57:13;;;;;;;;;;;7.00;99.90;;;;;;5054161;28;19904;-74
2021/12/21 03:59:41;;;;;;;;;;;7.00;99.90;;;;;;5054895;28;20306;-74
2021/12/21 04:02:08;;;;;;;;;;;7.00;99.90;;;;;;5054118;28;19958;-74
2021/12/21 04:04:33;;;;;;;;;;;7.00;99.90;;;;;;5054466;28;20421;-73
2021/12/21 04:06:59;;;;;;;;;;;7.00;99.90;;;;;;5054096;28;19905;-74
2021/12/21 04:09:24;;;;;;;;;;;7.00;99.90;;;;;;5054697;28;19908;-74
2021/12/21 04:11:50;;;;;;;;;;;7.00;99.90;;;;;;5054402;28;19923;-74
2021/12/21 04:14:17;;;;;;;;;;;6.90;99.90;;;;;;5054484;28;20278;-74
2021/12/21 04:16:43;;;;;;;;;;;7.00;99.90;;;;;;5054125;28;19904;-73
2021/12/21 04:19:09;;;;;;;;;;;6.90;99.90;;;;;;5054221;28;19916;-74
2021/12/21 04:21:34;;;;;;;;;;;7.00;99.90;;;;;;5054504;28;19988;-74
2021/12/21 04:24:00;;;;;;;;;;;7.00;99.90;;;;;;5053760;28;20009;-74
2021/12/21 04:26:26;;;;;;;;;;;6.90;99.90;;;;;;5057479;28;19964;-74
2021/12/21 04:28:52;;;;;;;;;;;7.00;99.90;;;;;;5069083;28;20046;-74
2021/12/21 04:31:17;;;;;;;;;;;7.00;99.90;;;;;;5054006;28;19905;-74
2021/12/21 04:33:43;;;;;;;;;;;7.00;99.90;;;;;;5054431;28;20027;-74
2021/12/21 04:36:09;;;;;;;;;;;7.00;99.90;;;;;;5053583;28;19911;-74
2021/12/21 04:38:39;;;;;;;;;;;6.90;99.90;;;;;;5054205;28;20378;-73
2021/12/21 04:41:11;;;;;;;;;;;6.90;99.90;;;;;;5053507;28;19905;-74
2021/12/21 04:43:37;;;;;;;;;;;6.90;99.90;;;;;;5054169;28;20011;-73
2021/12/21 04:46:03;;;;;;;;;;;6.90;99.90;;;;;;5052826;28;20045;-74
2021/12/21 04:48:28;;;;;;;;;;;6.90;99.90;;;;;;5053992;28;19912;-73
2021/12/21 04:50:54;;;;;;;;;;;6.90;99.90;;;;;;5053503;28;19912;-74
2021/12/21 04:53:20;;;;;;;;;;;6.90;99.90;;;;;;5053432;28;20317;-73
2021/12/21 04:55:45;;;;;;;;;;;6.90;99.90;;;;;;5053653;28;20363;-73
2021/12/21 04:58:11;;;;;;;;;;;6.90;99.90;;;;;;5053190;28;20471;-73
2021/12/21 05:00:37;;;;;;;;;;;6.90;99.90;;;;;;5053817;28;19909;-73
2021/12/21 05:03:03;;;;;;;;;;;6.90;99.90;;;;;;5053104;28;19904;-73
2021/12/21 05:05:29;;;;;;;;;;;6.90;99.90;;;;;;5053711;28;19911;-74
2021/12/21 05:08:07;;;;;;;;;;;6.90;99.90;;;;;;5052894;28;19912;-74
2021/12/21 05:10:33;;;;;;;;;;;6.80;99.90;;;;;;5053349;28;19920;-74
2021/12/21 05:12:59;;;;;;;;;;;6.80;99.90;;;;;;5052972;28;19923;-74
2021/12/21 05:15:24;;;;;;;;;;;6.80;99.90;;;;;;5053447;28;20362;-74
2021/12/21 05:17:50;;;;;;;;;;;6.80;99.90;;;;;;5053425;28;20322;-74
2021/12/21 05:20:16;;;;;;;;;;;6.90;99.90;;;;;;5052582;28;19905;-74
2021/12/21 05:22:41;;;;;;;;;;;6.80;99.90;;;;;;5068770;28;19905;-74
2021/12/21 05:25:07;;;;;;;;;;;6.90;99.90;;;;;;5052555;28;19981;-73
2021/12/21 05:27:32;;;;;;;;;;;6.90;99.90;;;;;;5053075;28;19905;-73
2021/12/21 05:29:58;;;;;;;;;;;6.90;99.90;;;;;;5052343;28;19912;-74
2021/12/21 05:32:24;;;;;;;;;;;6.90;99.90;;;;;;5052940;28;20312;-73
2021/12/21 05:34:49;;;;;;;;;;;6.80;99.90;;;;;;5053114;28;19935;-73
2021/12/21 05:37:15;;;;;;;;;;;6.80;99.90;;;;;;5052472;28;19900;-74
2021/12/21 05:40:10;;;;;;;;;;;6.90;99.90;;;;;;5053079;28;19904;-74
2021/12/21 05:42:26;;;;;;;;;;;6.90;99.90;;;;;;5052814;28;19908;-74
2021/12/21 05:44:52;;;;;;;;;;;6.90;99.90;;;;;;5052878;28;19905;-74
2021/12/21 05:47:18;;;;;;;;;;;6.80;99.90;;;;;;5052057;28;19967;-74
2021/12/21 05:49:44;;;;;;;;;;;6.80;99.90;;;;;;5052765;28;19909;-73
2021/12/21 05:52:10;;;;;;;;;;;6.80;99.90;;;;;;5051901;28;20015;-74
2021/12/21 05:54:35;;;;;;;;;;;6.80;99.90;;;;;;5067968;28;19967;-73
2021/12/21 05:57:02;;;;;;;;;;;6.80;99.90;;;;;;5051090;28;19927;-74
2021/12/21 05:59:27;;;;;;;;;;;6.90;99.90;;;;;;5052743;28;20010;-74
2021/12/21 06:01:53;;;;;;;;;;;6.90;99.90;;;;;;5052714;28;19905;-74
2021/12/21 06:04:18;;;;;;;;;;;6.80;99.90;;;;;;5052012;28;19957;-74
2021/12/21 06:06:44;;;;;;;;;;;6.80;99.90;;;;;;5052383;28;19905;-74
2021/12/21 06:09:12;;;;;;;;;;;6.80;99.90;;;;;;5051892;28;19913;-74
2021/12/21 06:11:44;;;;;;;;;;;6.80;99.90;;;;;;5052446;28;19916;-74
2021/12/21 06:27:11;;;;;;;;;;;6.90;99.90;;;;;;5051665;28;20015;-73
2021/12/21 06:29:37;;;;;;;;;;;6.90;99.90;;;;;;5067808;28;20279;-73
2021/12/21 06:32:02;;;;;;;;;;;6.90;99.90;;;;;;5051639;28;19905;-74
2021/12/21 06:34:28;;;;;;;;;;;6.90;99.90;;;;;;5052431;28;19912;-74
2021/12/21 06:36:54;;;;;;;;;;;6.90;99.90;;;;;;5052387;28;19905;-73
2021/12/21 06:39:19;;;;;;;;;;;6.90;99.90;;;;;;5051746;28;20468;-73
2021/12/21 06:41:45;;;;;;;;;;;6.90;99.90;;;;;;5052363;28;19913;-73
2021/12/21 06:44:13;;;;;;;;;;;6.90;99.90;;;;;;5051658;28;19905;-73
2021/12/21 06:52:03;;;;;;;;;;;6.90;99.90;;;;;;5051409;28;19951;-74
2021/12/21 06:54:29;;;;;;;;;;;6.90;99.90;;;;;;5052139;28;19908;-74
2021/12/21 06:56:55;;;;;;;;;;;6.90;99.90;;;;;;5057762;28;19905;-73
2021/12/21 06:59:20;;;;;;;;;;;6.90;99.90;;;;;;5070689;28;19920;-73
2021/12/21 07:01:48;;;;;;;;;;;6.90;99.90;;;;;;5060362;28;20407;-73
2021/12/21 07:04:14;;;;;;;;;;;6.90;99.90;;;;;;5051470;28;19904;-74
2021/12/21 07:06:41;;;;;;;;;;;6.90;99.90;;;;;;5052208;28;19912;-73
2021/12/21 07:09:27;;;;;;;;;;;6.90;99.90;;;;;;5053039;28;19916;-74
2021/12/21 07:12:14;;;;;;;;;;;6.90;99.90;;;;;;5056032;28;19917;-73
2021/12/21 07:18:29;;;;;;;;;;;6.90;99.90;;;;;;5054834;28;19908;-74
2021/12/21 07:20:19;;;;;;;;;;;6.90;99.90;;;;;;5054314;28;20050;-74
2021/12/21 07:22:45;;;;;;;;;;;6.80;99.90;;;;;;5055299;28;20364;-73
2021/12/21 07:25:10;;;;;;;;;;;6.90;99.90;;;;;;5054804;28;19911;-74
2021/12/21 07:27:36;;;;;;;;;;;6.90;99.90;;;;;;5055272;28;19944;-74
2021/12/21 07:30:02;;;;;;;;;;;6.80;99.90;;;;;;5055235;28;19905;-73
2021/12/21 07:32:28;;;;;;;;;;;6.80;99.90;;;;;;5054853;28;20014;-74
2021/12/21 07:34:53;;;;;;;;;;;6.80;99.90;;;;;;5054000;28;19927;-73
2021/12/21 07:37:19;;;;;;;;;;;6.80;99.90;;;;;;5054678;28;20348;-73
2021/12/21 07:39:44;;;;;;;;;;;6.80;99.90;;;;;;5055214;28;20241;-74
2021/12/21 07:42:10;;;;;;;;;;;6.80;99.90;;;;;;5054805;28;20307;-74
2021/12/21 07:44:36;;;;;;;;;;;6.80;99.90;;;;;;5055140;28;19909;-74
2021/12/21 07:47:01;;;;;;;;;;;6.80;99.90;;;;;;5054900;28;19947;-74
2021/12/21 07:49:27;;;;;;;;;;;6.80;99.90;;;;;;5054297;28;19955;-73
2021/12/21 07:51:53;;;;;;;;;;;6.80;99.90;;;;;;5054884;28;19905;-73
2021/12/21 07:54:18;;;;;;;;;;;6.80;99.90;;;;;;5054173;28;19912;-74
2021/12/21 07:56:44;;;;;;;;;;;6.80;99.90;;;;;;5054895;28;19905;-73
2021/12/21 07:59:11;;;;;;;;;;;6.80;99.90;;;;;;5052783;28;19938;-73
2021/12/21 08:01:37;;;;;;;;;;;6.80;99.90;;;;;;5054604;28;20286;-73
2021/12/21 08:04:03;;;;;;;;;;;6.80;99.90;;;;;;5054375;28;19911;-73
2021/12/21 08:06:32;;;;;;;;;;;6.80;99.90;;;;;;5054482;28;20271;-73
2021/12/21 08:08:58;;;;;;;;;;;6.80;99.90;;;;;;5054322;28;20322;-73
2021/12/21 08:14:01;;;;;;;;;;;6.80;99.90;;;;;;5054183;28;19905;-73
2021/12/21 08:16:27;;;;;;;;;;;6.80;99.90;;;;;;5053250;28;19926;-73
2021/12/21 08:18:52;;;;;;;;;;;6.80;99.90;;;;;;5054259;28;19951;-73
2021/12/21 08:21:19;;;;;;;;;;;6.80;99.90;;;;;;5052743;28;19957;-74
2021/12/21 08:23:45;;;;;;;;;;;6.80;99.90;;;;;;5054377;28;19912;-73
2021/12/21 08:26:10;;;;;;;;;;;6.70;99.90;;;;;;5053591;28;19912;-73
2021/12/21 08:28:36;;;;;;;;;;;6.70;99.90;;;;;;5054218;28;19916;-73
2021/12/21 08:31:02;;;;;;;;;;;6.70;99.90;;;;;;5054025;28;19911;-73
2021/12/21 08:33:27;;;;;;;;;;;6.70;99.90;;;;;;5053441;28;19901;-73
2021/12/21 08:35:53;;;;;;;;;;;6.70;99.90;;;;;;5054184;28;19905;-73
2021/12/21 08:38:19;;;;;;;;;;;6.70;99.90;;;;;;5053891;28;19995;-73
2021/12/21 08:40:49;;;;;;;;;;;6.80;99.90;;;;;;5053758;28;20260;-73
2021/12/21 08:43:16;;;;;;;;;;;6.70;99.90;;;;;;5068433;28;19905;-74
2021/12/21 08:45:44;;;;;;;;;;;6.70;99.90;;;;;;5054000;28;20047;-73
2021/12/21 08:48:11;;;;;;;;;;;6.80;99.90;;;;;;5053280;28;19912;-74
2021/12/21 08:50:37;;;;;;;;;;;6.80;99.90;;;;;;5053683;28;19908;-73
2021/12/21 08:53:03;;;;;;;;;;;6.70;99.90;;;;;;5053565;28;19908;-73
2021/12/21 08:55:29;;;;;;;;;;;6.70;99.90;;;;;;5052965;28;20126;-73
2021/12/21 08:57:55;;;;;;;;;;;6.80;99.90;;;;;;5053250;28;19995;-73
2021/12/21 09:00:20;;;;;;;;;;;6.80;99.90;;;;;;5052952;28;19947;-73
2021/12/21 09:02:46;;;;;;;;;;;6.80;99.90;;;;;;5053663;28;20301;-75
2021/12/21 09:05:15;;;;;;;;;;;6.80;99.90;;;;;;5051688;28;20385;-74
2021/12/21 09:07:45;;;;;;;;;;;6.70;99.90;;;;;;5053503;28;19944;-73
2021/12/21 09:10:12;;;;;;;;;;;6.80;99.90;;;;;;5052472;28;20007;-74
2021/12/21 09:12:38;;;;;;;;;;;6.80;99.90;;;;;;5053421;28;19948;-73
2021/12/21 09:15:05;;;;;;;;;;;6.80;99.90;;;;;;5052920;28;19905;-73
2021/12/21 09:17:30;;;;;;;;;;;6.70;99.90;;;;;;5052524;28;19900;-73
2021/12/21 09:19:56;;;;;;;;;;;6.70;99.90;;;;;;5053092;28;20018;-73
2021/12/21 09:22:22;;;;;;;;;;;6.80;99.90;;;;;;5052528;28;20257;-73
2021/12/21 09:24:48;;;;;;;;;;;6.80;99.90;;;;;;5052725;28;19912;-73
2021/12/21 09:27:14;;;;;;;;;;;6.70;99.90;;;;;;5067528;28;19909;-74
2021/12/21 09:29:40;;;;;;;;;;;6.70;99.90;;;;;;5052654;28;20011;-74
2021/12/21 09:32:06;;;;;;;;;;;6.70;99.90;;;;;;5054931;28;19959;-73
2021/12/21 09:34:32;;;;;;;;;;;6.60;99.90;;;;;;5063601;28;19905;-74
2021/12/21 09:36:58;;;;;;;;;;;6.60;99.90;;;;;;5066425;28;19912;-72
2021/12/21 09:39:23;;;;;;;;;;;6.60;99.90;;;;;;5062084;28;19911;-74
2021/12/21 09:41:49;;;;;;;;;;;6.60;99.90;;;;;;5063284;28;19905;-73
2021/12/21 09:44:15;;;;;;;;;;;6.60;99.90;;;;;;5067245;28;20374;-74
2021/12/21 09:46:41;;;;;;;;;;;6.50;99.90;;;;;;5052595;28;19916;-73
2021/12/21 09:49:06;;;;;;;;;;;6.50;99.90;;;;;;5052446;28;19916;-73
2021/12/21 09:51:32;;;;;;;;;;;6.50;99.90;;;;;;5051727;28;20372;-73
2021/12/21 09:53:58;;;;;;;;;;;6.50;99.90;;;;;;5052797;28;19905;-73
2021/12/21 09:56:24;;;;;;;;;;;6.50;99.90;;;;;;5051533;28;20351;-73
2021/12/21 09:58:49;;;;;;;;;;;6.50;99.90;;;;;;5052314;28;19904;-73
2021/12/21 10:01:17;;;;;;;;;;;6.50;99.90;;;;;;5051681;28;19904;-73
2021/12/21 10:03:42;;;;;;;;;;;6.50;99.90;;;;;;5052176;28;19911;-73
2021/12/21 10:06:12;;;;;;;;;;;6.50;99.90;;;;;;5052314;28;20266;-73
2021/12/21 10:08:39;;;;;;;;;;;6.50;99.90;;;;;;5051678;28;20375;-73
2021/12/21 10:11:06;;;;;;;;;;;6.60;99.90;;;;;;5051954;28;20003;-73
2021/12/21 10:13:34;;;;;;;;;;;6.50;99.90;;;;;;5051631;28;19909;-73
2021/12/21 10:16:00;;;;;;;;;;;6.60;99.90;;;;;;5051955;28;19938;-73
2021/12/21 10:18:28;;;;;;;;;;;6.60;99.90;;;;;;5051242;28;20351;-74
2021/12/21 10:20:55;;;;;;;;;;;6.60;99.90;;;;;;5067575;28;19961;-73
2021/12/21 10:23:41;;;;;;;;;;;6.60;99.90;;;;;;5051518;28;19908;-72
2021/12/21 10:26:10;;;;;;;;;;;6.60;99.90;;;;;;5051470;28;19913;-73
2021/12/21 10:28:39;;;;;;;;;;;6.60;99.90;;;;;;5051128;28;19913;-73
2021/12/21 10:31:07;;;;;;;;;;;6.70;99.90;;;;;;5051842;28;19904;-73
2021/12/21 10:33:33;;;;;;;;;;;6.70;99.90;;;;;;5051617;28;19954;-73
2021/12/21 10:36:00;;;;;;;;;;;6.70;99.90;;;;;;5052064;28;20294;-73
2021/12/21 10:38:31;;;;;;;;;;;6.70;99.90;;;;;;5050088;28;19931;-73
2021/12/21 10:40:58;;;;;;;;;;;6.70;99.90;;;;;;5051965;28;19996;-73
2021/12/21 10:43:27;;;;;;;;;;;6.70;99.90;;;;;;5051984;28;19905;-73
2021/12/21 10:45:53;;;;;;;;;;;6.70;99.90;;;;;;5055842;28;20283;-73
2021/12/21 10:48:19;;;;;;;;;;;6.70;99.90;;;;;;5053763;28;19935;-73
2021/12/21 10:50:45;;;;;;;;;;;6.70;99.90;;;;;;5055813;28;19905;-73
2021/12/21 10:53:18;;;;;;;;;;;6.70;99.90;;;;;;5055679;28;20468;-73
2021/12/21 10:55:44;;;;;;;;;;;6.70;99.90;;;;;;5055726;28;20386;-73
2021/12/21 10:58:15;;;;;;;;;;;6.70;99.90;;;;;;5055639;28;19904;-73
2021/12/21 11:01:01;;;;;;;;;;;6.70;99.90;;;;;;5055169;28;19905;-74
2021/12/21 11:03:32;;;;;;;;;;;6.70;99.90;;;;;;5054641;28;19944;-73
2021/12/21 11:06:15;;;;;;;;;;;6.70;99.90;;;;;;5055445;28;19905;-73
2021/12/21 11:08:45;;;;;;;;;;;6.80;99.90;;;;;;5055378;28;19920;-73
2021/12/21 11:11:22;;;;;;;;;;;6.70;99.90;;;;;;5055307;28;19916;-73
2021/12/21 11:14:00;;;;;;;;;;;6.80;99.90;;;;;;5055344;28;19991;-73
2021/12/21 11:16:45;;;;;;;;;;;6.80;99.90;;;;;;5054634;28;19936;-74
2021/12/21 11:19:12;;;;;;;;;;;6.90;99.90;;;;;;5054980;28;19911;-73
2021/12/21 11:21:39;;;;;;;;;;;6.90;99.90;;;;;;5054686;28;19951;-74
2021/12/21 11:24:06;;;;;;;;;;;6.90;99.90;;;;;;5055173;28;19955;-73
2021/12/21 11:26:32;;;;;;;;;;;6.90;99.90;;;;;;5054493;28;19912;-74
2021/12/21 11:29:01;;;;;;;;;;;6.90;99.90;;;;;;5054595;28;19939;-73
2021/12/21 11:31:27;;;;;;;;;;;6.90;99.90;;;;;;5054305;28;19915;-74
2021/12/21 11:33:57;;;;;;;;;;;7.00;99.90;;;;;;5055056;28;19904;-74
2021/12/21 11:39:07;;;;;;;;;;;7.00;99.90;;;;;;5054869;28;20299;-73
2021/12/21 11:41:34;;;;;;;;;;;6.90;99.90;;;;;;5054289;28;19956;-73
2021/12/21 11:44:02;;;;;;;;;;;6.90;99.90;;;;;;5055048;28;19911;-73
2021/12/21 11:46:33;;;;;;;;;;;6.90;99.90;;;;;;5054055;28;20259;-73
2021/12/21 11:49:02;;;;;;;;;;;6.90;99.90;;;;;;5054526;28;19983;-73
2021/12/21 11:51:28;;;;;;;;;;;7.00;99.90;;;;;;5054245;28;20034;-73
2021/12/21 11:53:54;;;;;;;;;;;7.00;99.90;;;;;;5054838;28;20373;-73
2021/12/21 11:56:23;;;;;;;;;;;6.90;99.90;;;;;;5054218;28;19966;-73
2021/12/21 11:58:50;;;;;;;;;;;7.00;99.90;;;;;;5055079;28;19905;-73
2021/12/21 12:01:34;;;;;;;;;;;6.90;99.90;;;;;;5054527;28;19911;-73
2021/12/21 12:04:05;;;;;;;;;;;7.00;99.90;;;;;;5054766;28;19955;-73
2021/12/21 12:06:44;;;;;;;;;;;7.00;99.90;;;;;;5054286;28;19951;-73
2021/12/21 12:09:10;;;;;;;;;;;7.00;99.90;;;;;;5054286;28;20248;-73
2021/12/21 12:11:37;;;;;;;;;;;7.00;99.90;;;;;;5054037;28;19978;-73
2021/12/21 12:14:04;;;;;;;;;;;7.10;99.90;;;;;;5054653;28;19905;-73
2021/12/21 12:16:40;;;;;;;;;;;7.10;99.90;;;;;;5053733;28;19905;-74
2021/12/21 12:19:10;;;;;;;;;;;7.10;99.90;;;;;;5054558;28;19905;-73
2021/12/21 12:21:35;;;;;;;;;;;7.20;99.90;;;;;;5053679;28;19904;-74
2021/12/21 12:24:02;;;;;;;;;;;7.20;99.90;;;;;;5057634;28;20318;-72
2021/12/21 12:26:29;;;;;;;;;;;7.20;99.90;;;;;;5066630;28;19950;-73
2021/12/21 12:29:15;;;;;;;;;;;7.20;99.90;;;;;;5053962;28;19913;-73
2021/12/21 12:31:42;;;;;;;;;;;7.30;99.90;;;;;;5053074;28;19901;-73
2021/12/21 12:34:08;;;;;;;;;;;7.30;99.90;;;;;;5054167;28;19904;-73
2021/12/21 12:36:47;;;;;;;;;;;7.30;99.90;;;;;;5053163;28;19950;-73
2021/12/21 12:39:24;;;;;;;;;;;7.20;99.90;;;;;;5053812;28;20256;-73
2021/12/21 12:41:50;;;;;;;;;;;7.20;99.90;;;;;;5053830;28;19905;-73
2021/12/21 12:44:23;;;;;;;;;;;7.20;99.90;;;;;;5052765;28;19912;-73
2021/12/21 12:46:53;;;;;;;;;;;7.20;99.90;;;;;;5053868;28;19995;-73
2021/12/21 12:49:26;;;;;;;;;;;7.20;99.90;;;;;;5053801;28;19990;-73
2021/12/21 12:52:00;;;;;;;;;;;7.30;99.90;;;;;;5053797;28;19912;-73
2021/12/21 12:54:27;;;;;;;;;;;7.30;99.90;;;;;;5052887;28;19915;-74
2021/12/21 12:56:53;;;;;;;;;;;7.30;99.90;;;;;;5053849;28;19904;-73
2021/12/21 12:59:18;;;;;;;;;;;7.30;99.90;;;;;;5053956;28;20255;-73
2021/12/21 13:01:45;;;;;;;;;;;7.20;99.90;;;;;;5052992;28;19905;-73
2021/12/21 13:04:13;;;;;;;;;;;7.20;99.90;;;;;;5053547;28;20347;-73
2021/12/21 13:06:39;;;;;;;;;;;7.20;99.90;;;;;;5052386;28;19951;-74
2021/12/21 13:09:06;;;;;;;;;;;7.20;99.90;;;;;;5053163;28;20389;-74
2021/12/21 13:11:33;;;;;;;;;;;7.20;99.90;;;;;;5052650;28;19990;-74
2021/12/21 13:14:00;;;;;;;;;;;7.30;99.90;;;;;;5053250;28;20351;-73
2021/12/21 13:16:33;;;;;;;;;;;7.30;99.90;;;;;;5052515;28;19911;-73
2021/12/21 13:19:00;;;;;;;;;;;7.30;99.90;;;;;;5053292;28;19946;-73
2021/12/21 13:21:35;;;;;;;;;;;7.40;99.90;;;;;;5051182;28;20062;-74
2021/12/21 13:24:02;;;;;;;;;;;7.40;99.90;;;;;;5053008;28;19948;-73
2021/12/21 13:26:51;;;;;;;;;;;7.40;99.90;;;;;;5052351;28;20352;-73
2021/12/21 13:29:18;;;;;;;;;;;7.50;99.90;;;;;;5052424;28;20398;-73
2021/12/21 13:31:45;;;;;;;;;;;7.50;99.90;;;;;;5051994;28;20058;-73
2021/12/21 13:34:10;;;;;;;;;;;7.50;99.90;;;;;;5052655;28;19916;-73
2021/12/21 13:36:37;;;;;;;;;;;7.50;99.90;;;;;;5051835;28;19908;-73
2021/12/21 13:39:14;;;;;;;;;;;7.50;99.90;;;;;;5051255;28;20352;-74
2021/12/21 13:41:49;;;;;;;;;;;7.50;99.90;;;;;;5051954;28;19908;-73
2021/12/21 13:44:25;;;;;;;;;;;7.60;99.90;;;;;;5052265;28;20371;-73
2021/12/21 13:46:51;;;;;;;;;;;7.50;99.90;;;;;;5051134;28;20343;-73
2021/12/21 13:49:17;;;;;;;;;;;7.50;99.90;;;;;;5052293;28;19943;-73
2021/12/21 13:51:53;;;;;;;;;;;7.50;99.90;;;;;;5052033;28;19908;-74
2021/12/21 13:54:20;;;;;;;;;;;7.50;99.90;;;;;;5052838;28;19904;-74
2021/12/21 13:56:46;;;;;;;;;;;7.50;99.90;;;;;;5050428;28;19960;-74
2021/12/21 13:59:13;;;;;;;;;;;7.50;99.90;;;;;;5052382;28;19954;-74
2021/12/21 14:01:39;;;;;;;;;;;7.50;99.90;;;;;;5051910;28;20310;-73
2021/12/21 14:04:08;;;;;;;;;;;7.50;99.90;;;;;;5052221;28;19984;-73
2021/12/21 14:06:35;;;;;;;;;;;7.50;99.90;;;;;;5051627;28;19905;-73
2021/12/21 14:09:01;;;;;;;;;;;7.50;99.90;;;;;;5052295;28;19919;-73
2021/12/21 14:11:28;;;;;;;;;;;7.50;99.90;;;;;;5051070;28;19927;-74
2021/12/21 14:13:54;;;;;;;;;;;7.50;99.90;;;;;;5052105;28;19927;-74
2021/12/21 14:16:21;;;;;;;;;;;7.50;99.90;;;;;;5052059;28;19909;-73
2021/12/21 14:18:48;;;;;;;;;;;7.50;99.90;;;;;;5050444;28;19990;-73
2021/12/21 14:21:15;;;;;;;;;;;7.50;99.90;;;;;;5051992;28;20007;-73
2021/12/21 14:23:42;;;;;;;;;;;7.50;99.90;;;;;;5051294;28;19905;-74
2021/12/21 14:26:09;;;;;;;;;;;7.50;99.90;;;;;;5051966;28;19911;-74
2021/12/21 14:28:45;;;;;;;;;;;7.50;99.90;;;;;;5051739;28;20011;-73
2021/12/21 14:31:13;;;;;;;;;;;7.60;99.90;;;;;;5052390;28;19958;-74
2021/12/21 14:33:48;;;;;;;;;;;7.60;99.90;;;;;;5051538;28;19904;-74
2021/12/21 14:36:15;;;;;;;;;;;7.60;99.90;;;;;;5052469;28;19909;-73
2021/12/21 14:38:55;;;;;;;;;;;7.60;99.90;;;;;;5051563;28;19980;-76
2021/12/21 14:41:23;;;;;;;;;;;7.60;99.90;;;;;;5052480;28;19959;-72
2021/12/21 14:43:59;;;;;;;;;;;7.60;99.90;;;;;;5051757;28;19905;-73
2021/12/21 14:46:24;;;;;;;;;;;7.60;99.90;;;;;;5067713;28;20335;-73
2021/12/21 14:49:05;;;;;;;;;;;7.60;99.90;;;;;;5066953;28;19913;-73
2021/12/21 14:51:37;;;;;;;;;;;7.60;99.90;;;;;;5051507;28;19905;-74
2021/12/21 14:54:07;;;;;;;;;;;7.60;99.90;;;;;;5052296;28;20244;-75
2021/12/21 14:56:35;;;;;;;;;;;7.60;99.90;;;;;;5051820;28;19912;-74
2021/12/21 14:59:03;;;;;;;;;;;7.70;99.90;;;;;;5052265;28;19912;-74
2021/12/21 15:01:36;;;;;;;;;;;7.70;99.90;;;;;;5051520;28;19974;-75
2021/12/21 15:04:21;;;;;;;;;;;7.60;99.90;;;;;;5051685;28;19970;-73
2021/12/21 15:06:46;;;;;;;;;;;7.60;99.90;;;;;;5051362;28;20177;-73
2021/12/21 15:09:12;;;;;;;;;;;7.60;99.90;;;;;;5051655;28;20410;-73
2021/12/21 15:11:43;;;;;;;;;;;7.60;99.90;;;;;;5051918;28;20375;-73
2021/12/21 15:14:08;;;;;;;;;;;7.60;99.90;;;;;;5051782;28;19905;-72
2021/12/21 15:16:34;;;;;;;;;;;7.60;99.90;;;;;;5051515;28;19912;-74
2021/12/21 15:18:59;;;;;;;;;;;7.60;99.90;;;;;;5051487;28;19962;-73
2021/12/21 15:21:25;;;;;;;;;;;7.60;99.90;;;;;;5051810;28;20374;-73
2021/12/21 15:23:53;;;;;;;;;;;7.50;99.90;;;;;;5051446;28;19900;-73
2021/12/21 15:26:19;;;;;;;;;;;7.50;99.90;;;;;;5051337;28;20352;-73
2021/12/21 15:28:45;;;;;;;;;;;7.40;99.90;;;;;;5050721;28;19998;-73
2021/12/21 15:31:11;;;;;;;;;;;7.40;99.90;;;;;;5055106;28;19971;-74
2021/12/21 15:33:36;;;;;;;;;;;7.40;99.90;;;;;;5054477;28;19909;-73
2021/12/21 15:36:02;;;;;;;;;;;7.40;99.90;;;;;;5055324;28;19908;-73
2021/12/21 15:38:27;;;;;;;;;;;7.30;99.90;;;;;;5054715;28;19928;-73
2021/12/21 15:40:53;;;;;;;;;;;7.20;99.90;;;;;;5054816;28;20367;-73
2021/12/21 15:43:20;;;;;;;;;;;7.20;99.90;;;;;;5054934;28;19962;-74